Jauja, Peru
Current Conditions -  °F | °C
As of 3:00 PM on Monday 24 Nov 2014 (Local Time) from SPIM Reporting Station
Overcast Overcast  
Wind Chill: 72°   Ceiling: 2800
Heat Index: 72°   Visibility: 6mi
Dew Point: 61°   Wind: 8mph
Humidity: 69%   Direction: 180°S
Pressure: 29.88"   Gusts: NA
Location:  11.8°S, 75.5°W
Report Text: SPIM 242000Z 18007KT 9999 OVC028 22/16 Q1012 NOSIG RMK PP000
Loading
Personal Weather Stations






























Interactive Weather Map New forecast layout! Learn more

10-Day Weather Forecast

Advertisements
Track Severe Weather on mobile